createdAt,value
2019-02-07T00:00:30.244Z,8.10
2019-02-07T00:02:58.655Z,8.10
2019-02-07T00:05:27.052Z,8.00
2019-02-07T00:07:55.478Z,8.00
2019-02-07T00:10:23.883Z,7.90
2019-02-07T00:12:52.288Z,8.00
2019-02-07T00:15:20.699Z,7.90
2019-02-07T00:17:49.115Z,7.90
2019-02-07T00:20:19.323Z,7.90
2019-02-07T00:22:47.756Z,8.10
2019-02-07T00:25:16.177Z,8.10
2019-02-07T00:27:44.824Z,8.30
2019-02-07T00:30:16.953Z,8.20
2019-02-07T00:32:45.444Z,8.10
2019-02-07T00:35:14.304Z,7.90
2019-02-07T00:37:42.712Z,8.00
2019-02-07T00:40:19.174Z,8.00
2019-02-07T00:42:48.016Z,8.10
2019-02-07T00:45:19.863Z,8.00
2019-02-07T00:47:49.095Z,7.90
2019-02-07T00:50:18.340Z,7.80
2019-02-07T00:52:46.808Z,7.70
2019-02-07T00:55:17.428Z,7.80
2019-02-07T00:57:46.719Z,7.70
2019-02-07T01:00:25.796Z,7.50
2019-02-07T01:02:54.560Z,7.40
2019-02-07T01:05:23.379Z,7.50
2019-02-07T01:07:52.236Z,7.50
2019-02-07T01:10:26.680Z,7.50
2019-02-07T01:12:55.181Z,7.50
2019-02-07T01:15:24.079Z,7.50
2019-02-07T01:17:52.542Z,7.60
2019-02-07T01:20:21.085Z,7.60
2019-02-07T01:22:49.679Z,7.60
2019-02-07T01:25:20.356Z,7.60
2019-02-07T01:27:49.013Z,7.60
2019-02-07T01:30:22.835Z,7.60
2019-02-07T01:32:51.245Z,7.50
2019-02-07T01:35:19.643Z,7.50
2019-02-07T01:37:48.085Z,7.40
2019-02-07T01:40:18.372Z,7.40
2019-02-07T01:42:46.846Z,7.40
2019-02-07T01:45:18.466Z,7.30
2019-02-07T01:47:46.957Z,7.20
2019-02-07T01:50:17.599Z,7.10
2019-02-07T01:52:46.452Z,7.20
2019-02-07T01:55:15.612Z,7.10
2019-02-07T01:57:44.695Z,7.10
2019-02-07T02:00:18.076Z,7.10
2019-02-07T02:02:46.927Z,7.10
2019-02-07T02:05:17.166Z,7.10
2019-02-07T02:07:46.116Z,7.00
2019-02-07T02:10:20.140Z,7.00
2019-02-07T02:12:48.787Z,7.00
2019-02-07T02:15:24.716Z,7.00
2019-02-07T02:17:50.039Z,7.00
2019-02-07T02:20:23.077Z,7.10
2019-02-07T02:22:52.327Z,7.10
2019-02-07T02:25:21.030Z,7.10
2019-02-07T02:27:49.583Z,7.00
2019-02-07T02:30:27.150Z,7.00
2019-02-07T02:32:55.645Z,7.00
2019-02-07T02:35:24.433Z,7.00
2019-02-07T02:37:52.840Z,7.10
2019-02-07T02:40:21.259Z,7.10
2019-02-07T02:42:49.840Z,7.10
2019-02-07T02:45:23.047Z,7.20
2019-02-07T02:47:51.779Z,7.10
2019-02-07T02:50:21.435Z,7.10
2019-02-07T02:52:49.905Z,7.00
2019-02-07T02:55:28.983Z,6.90
2019-02-07T02:57:57.382Z,6.90
2019-02-07T03:00:29.929Z,7.00
2019-02-07T03:03:18.412Z,6.90
2019-02-07T03:05:48.470Z,6.80
2019-02-07T03:08:21.567Z,6.80
2019-02-07T03:10:51.606Z,6.90
2019-02-07T03:13:21.674Z,6.90
2019-02-07T03:16:00.913Z,7.00
2019-02-07T03:18:47.327Z,6.90
2019-02-07T03:21:20.747Z,5.50
2019-02-07T03:24:05.867Z,6.90
2019-02-07T03:26:35.907Z,6.80
2019-02-07T03:29:06.427Z,6.60
2019-02-07T03:31:42.800Z,6.60
2019-02-07T03:34:27.884Z,6.60
2019-02-07T03:37:12.598Z,6.60
2019-02-07T03:39:42.936Z,6.60
2019-02-07T03:42:29.471Z,6.60
2019-02-07T03:44:59.529Z,6.60
2019-02-07T03:47:32.041Z,6.50
2019-02-07T03:50:20.760Z,6.50
2019-02-07T03:52:53.255Z,6.50
2019-02-07T03:55:23.312Z,6.40
2019-02-07T03:57:59.367Z,6.40
2019-02-07T04:00:38.258Z,6.30
2019-02-07T04:03:13.997Z,6.30
2019-02-07T04:05:49.912Z,6.30
2019-02-07T04:08:37.040Z,6.30
2019-02-07T04:11:10.255Z,6.30
2019-02-07T04:13:40.307Z,6.30
2019-02-07T04:16:15.294Z,6.40
2019-02-07T04:18:42.151Z,6.30
2019-02-07T04:21:12.207Z,6.30
2019-02-07T04:23:56.983Z,6.40
2019-02-07T04:26:43.243Z,6.30
2019-02-07T04:29:13.356Z,6.40
2019-02-07T04:31:43.417Z,6.30
2019-02-07T04:34:29.774Z,6.30
2019-02-07T04:37:02.881Z,6.30
2019-02-07T04:39:48.192Z,6.30
2019-02-07T04:42:33.585Z,6.30
2019-02-07T04:45:19.235Z,6.40
2019-02-07T04:47:55.182Z,6.40
2019-02-07T04:50:41.783Z,6.40
2019-02-07T04:53:30.194Z,6.40
2019-02-07T04:56:18.387Z,6.40
2019-02-07T04:59:03.984Z,6.40
2019-02-07T05:01:50.579Z,6.40
2019-02-07T05:04:23.595Z,6.40
2019-02-07T05:07:02.899Z,6.40
2019-02-07T05:09:33.015Z,6.40
2019-02-07T05:12:06.203Z,6.40
2019-02-07T05:14:45.190Z,6.40
2019-02-07T05:17:21.264Z,6.50
2019-02-07T05:19:57.215Z,6.40
2019-02-07T05:22:27.302Z,6.40
2019-02-07T05:25:00.041Z,6.40
2019-02-07T05:27:30.107Z,6.40
2019-02-07T05:30:09.183Z,6.40
2019-02-07T05:32:55.648Z,6.30
2019-02-07T05:35:32.188Z,6.30
2019-02-07T05:38:05.156Z,6.20
2019-02-07T05:40:47.257Z,6.20
2019-02-07T05:43:20.118Z,6.20
2019-02-07T05:46:05.395Z,6.30
2019-02-07T05:48:40.869Z,6.30
2019-02-07T05:51:13.677Z,6.40
2019-02-07T05:53:46.615Z,6.40
2019-02-07T05:56:17.159Z,6.40
2019-02-07T05:58:58.938Z,6.20
2019-02-07T06:01:37.092Z,6.20
2019-02-07T06:04:13.251Z,6.30
2019-02-07T06:06:55.636Z,6.30
2019-02-07T06:09:37.764Z,6.40
2019-02-07T06:12:13.496Z,6.20
2019-02-07T06:14:46.525Z,6.20
2019-02-07T06:17:19.265Z,6.10
2019-02-07T06:19:52.332Z,6.10
2019-02-07T06:22:34.337Z,6.00
2019-02-07T06:25:13.530Z,6.00
2019-02-07T06:27:49.623Z,6.10
2019-02-07T06:30:20.071Z,6.10
2019-02-07T06:33:05.468Z,6.10
2019-02-07T06:35:55.284Z,6.00
2019-02-07T06:38:34.606Z,6.00
2019-02-07T06:41:05.020Z,5.90
2019-02-07T06:43:44.043Z,5.90
2019-02-07T06:46:14.096Z,5.90
2019-02-07T06:48:58.857Z,5.80
2019-02-07T06:51:40.912Z,5.90
2019-02-07T06:54:13.921Z,6.00
2019-02-07T06:56:59.020Z,6.10
2019-02-07T06:59:29.304Z,6.10
2019-02-07T07:01:59.392Z,6.10
2019-02-07T07:04:47.543Z,6.10
2019-02-07T07:07:35.815Z,6.20
2019-02-07T07:10:27.252Z,6.20
2019-02-07T07:13:03.052Z,6.20
2019-02-07T07:15:47.889Z,6.20
2019-02-07T07:18:32.631Z,6.10
2019-02-07T07:21:08.671Z,6.10
2019-02-07T07:23:47.516Z,6.10
2019-02-07T07:26:33.976Z,6.00
2019-02-07T07:29:19.307Z,6.10
2019-02-07T07:32:05.653Z,6.10
2019-02-07T07:34:52.055Z,6.10
2019-02-07T07:37:25.261Z,6.00
2019-02-07T07:40:11.431Z,6.00
2019-02-07T07:42:44.243Z,6.00
2019-02-07T07:45:29.440Z,6.00
2019-02-07T07:48:02.335Z,6.00
2019-02-07T07:50:38.116Z,6.00
2019-02-07T07:53:08.191Z,6.00
2019-02-07T07:55:53.256Z,6.80
2019-02-07T07:58:39.777Z,5.90
2019-02-07T08:01:15.859Z,6.00
2019-02-07T08:03:45.929Z,6.00
2019-02-07T08:06:18.870Z,6.00
2019-02-07T08:09:03.784Z,6.00
2019-02-07T08:11:36.542Z,6.10
2019-02-07T08:14:23.612Z,6.10
2019-02-07T08:17:09.026Z,6.20
2019-02-07T08:19:42.384Z,6.30
2019-02-07T08:22:28.776Z,6.40
2019-02-07T08:25:15.420Z,6.40
2019-02-07T08:27:45.576Z,6.50
2019-02-07T08:30:36.444Z,6.60
2019-02-07T08:33:19.379Z,6.60
2019-02-07T08:36:01.469Z,6.60
2019-02-07T08:38:43.489Z,6.60
2019-02-07T08:41:16.555Z,6.70
2019-02-07T08:43:59.075Z,6.80
2019-02-07T08:46:31.862Z,6.80
2019-02-07T08:49:03.077Z,6.90
2019-02-07T08:51:48.364Z,7.00
2019-02-07T08:54:34.556Z,7.00
2019-02-07T08:57:21.169Z,7.00
2019-02-07T08:59:57.324Z,6.90
2019-02-07T09:02:27.440Z,6.80
2019-02-07T09:04:57.679Z,6.80
2019-02-07T09:07:32.312Z,6.70
2019-02-07T09:10:17.307Z,6.80
2019-02-07T09:12:50.825Z,6.80
2019-02-07T09:15:24.643Z,6.90
2019-02-07T09:18:09.788Z,6.90
2019-02-07T09:20:49.168Z,6.90
2019-02-07T09:23:25.387Z,6.80
2019-02-07T09:25:58.473Z,6.90
2019-02-07T09:28:31.486Z,7.00
2019-02-07T09:31:37.732Z,6.90
2019-02-07T09:34:10.754Z,7.00
2019-02-07T09:36:47.099Z,7.10
2019-02-07T09:39:20.173Z,7.10
2019-02-07T09:42:06.747Z,7.20
2019-02-07T09:44:53.355Z,7.30
2019-02-07T09:47:40.028Z,7.20
2019-02-07T09:50:11.316Z,7.30
2019-02-07T09:52:53.638Z,7.40
2019-02-07T09:55:26.653Z,7.40
2019-02-07T09:58:13.242Z,7.40
2019-02-07T10:00:59.757Z,7.50
2019-02-07T10:03:46.423Z,7.50
2019-02-07T10:06:16.472Z,7.50
2019-02-07T10:08:55.578Z,7.50
2019-02-07T10:11:31.621Z,7.60
2019-02-07T10:14:11.461Z,7.70
2019-02-07T10:16:41.908Z,7.80
2019-02-07T10:19:14.674Z,7.90
2019-02-07T10:21:50.247Z,7.70
2019-02-07T10:24:36.532Z,7.70
2019-02-07T10:27:23.684Z,7.80
2019-02-07T10:29:53.723Z,7.90
2019-02-07T10:32:39.184Z,7.80
2019-02-07T10:35:22.605Z,7.90
2019-02-07T10:37:47.737Z,8.10
2019-02-07T10:40:17.928Z,8.10
2019-02-07T10:42:48.045Z,8.10
2019-02-07T10:45:34.644Z,8.20
2019-02-07T10:48:18.634Z,8.20
2019-02-07T10:50:48.668Z,8.30
2019-02-07T10:53:24.479Z,8.30
2019-02-07T10:55:54.551Z,8.30
2019-02-07T10:58:25.574Z,8.30
2019-02-07T11:00:55.748Z,8.30
2019-02-07T11:03:41.132Z,8.40
2019-02-07T11:06:27.735Z,8.40
2019-02-07T11:09:14.311Z,8.50
2019-02-07T11:11:44.347Z,8.50
2019-02-07T11:14:14.407Z,8.50
2019-02-07T11:17:00.677Z,8.50
2019-02-07T11:19:36.874Z,8.40
2019-02-07T11:22:23.106Z,8.40
2019-02-07T11:24:53.329Z,8.40
2019-02-07T11:27:29.336Z,8.40
2019-02-07T11:29:59.390Z,8.40
2019-02-07T11:32:32.338Z,8.40
2019-02-07T11:35:11.252Z,8.40
2019-02-07T11:37:53.335Z,8.50
2019-02-07T11:40:26.132Z,8.50
2019-02-07T11:43:12.764Z,8.50
2019-02-07T11:45:48.888Z,8.50
2019-02-07T11:48:21.883Z,8.40
2019-02-07T11:50:51.947Z,8.30
2019-02-07T11:53:33.689Z,8.40
2019-02-07T11:56:16.114Z,8.40
2019-02-07T11:58:52.349Z,8.40
2019-02-07T12:01:28.269Z,8.50
2019-02-07T12:04:01.200Z,8.50
2019-02-07T12:06:31.258Z,8.60
2019-02-07T12:09:16.215Z,8.70
2019-02-07T12:12:02.532Z,8.80
2019-02-07T12:14:35.528Z,8.90
2019-02-07T12:17:23.019Z,8.90
2019-02-07T12:20:03.267Z,9.00
2019-02-07T12:22:42.486Z,9.00
2019-02-07T12:25:15.842Z,9.00
2019-02-07T12:28:02.414Z,9.00
2019-02-07T12:30:32.544Z,9.00
2019-02-07T12:33:05.049Z,9.10
2019-02-07T12:35:37.863Z,9.30
2019-02-07T12:38:07.912Z,9.30
2019-02-07T12:40:38.003Z,9.40
2019-02-07T12:43:14.130Z,9.40
2019-02-07T12:46:00.676Z,9.50
2019-02-07T12:48:46.607Z,9.50
2019-02-07T12:51:16.707Z,9.70
2019-02-07T12:53:56.151Z,9.70
2019-02-07T12:56:28.868Z,9.70
2019-02-07T12:59:08.115Z,9.70
2019-02-07T13:01:40.885Z,9.70
2019-02-07T13:04:12.993Z,9.80
2019-02-07T13:06:45.747Z,10.00
2019-02-07T13:09:26.640Z,10.20
2019-02-07T13:11:56.700Z,10.20
2019-02-07T13:14:32.957Z,10.20
2019-02-07T13:17:03.056Z,10.20
2019-02-07T13:19:40.188Z,10.40
2019-02-07T13:22:22.989Z,10.40
2019-02-07T13:24:53.062Z,10.50
2019-02-07T13:27:25.900Z,10.50
2019-02-07T13:29:56.081Z,10.50
2019-02-07T13:32:35.124Z,10.60
2019-02-07T13:35:26.416Z,10.60
2019-02-07T13:37:56.516Z,10.60
2019-02-07T13:40:26.624Z,10.70
2019-02-07T13:43:11.919Z,10.70
2019-02-07T13:45:50.693Z,10.80
2019-02-07T13:48:20.744Z,10.70
2019-02-07T13:51:08.925Z,10.70
2019-02-07T13:53:48.173Z,10.70
2019-02-07T13:56:30.358Z,10.40
2019-02-07T13:59:09.272Z,10.30
2019-02-07T14:01:51.444Z,10.30
2019-02-07T14:04:21.483Z,10.10
2019-02-07T14:07:07.887Z,10.10
2019-02-07T14:09:41.207Z,10.10
2019-02-07T14:12:11.344Z,10.10
2019-02-07T14:14:47.239Z,10.10
2019-02-07T14:17:17.311Z,10.20
2019-02-07T14:20:03.289Z,10.30
2019-02-07T14:22:43.195Z,10.20
2019-02-07T14:25:13.487Z,10.20
2019-02-07T14:27:43.556Z,10.20
2019-02-07T14:30:20.650Z,10.20
2019-02-07T14:32:50.707Z,10.20
2019-02-07T14:35:26.884Z,10.20
2019-02-07T14:37:57.002Z,10.30
2019-02-07T14:40:30.389Z,10.40
2019-02-07T14:43:06.500Z,10.40
2019-02-07T14:45:36.615Z,10.40
2019-02-07T14:48:05.400Z,10.30
2019-02-07T14:50:33.818Z,10.20
2019-02-07T14:53:02.689Z,10.10
2019-02-07T14:55:31.128Z,10.10
2019-02-07T14:57:59.553Z,10.10
2019-02-07T15:00:28.754Z,10.00
2019-02-07T15:02:57.155Z,10.00
2019-02-07T15:05:25.580Z,9.90
2019-02-07T15:07:54.052Z,9.90
2019-02-07T15:10:22.736Z,10.10
2019-02-07T15:12:51.160Z,10.20
2019-02-07T15:15:21.477Z,10.40
2019-02-07T15:17:49.955Z,10.60
2019-02-07T15:20:25.878Z,10.50
2019-02-07T15:22:48.823Z,10.40
2019-02-07T15:25:17.612Z,10.30
2019-02-07T15:27:46.012Z,10.20
2019-02-07T15:30:19.571Z,10.10
2019-02-07T15:32:48.381Z,10.10
2019-02-07T15:35:23.109Z,10.10
2019-02-07T15:37:51.526Z,10.10
2019-02-07T15:40:25.705Z,10.10
2019-02-07T15:42:55.185Z,10.10
2019-02-07T15:45:24.144Z,10.00
2019-02-07T15:47:52.544Z,10.00
2019-02-07T15:50:23.266Z,9.90
2019-02-07T15:52:53.679Z,9.90
2019-02-07T15:55:22.173Z,9.90
2019-02-07T15:57:50.648Z,9.90
2019-02-07T16:00:43.356Z,9.80
2019-02-07T16:03:13.780Z,9.70
2019-02-07T16:05:42.205Z,9.60
2019-02-07T16:08:10.630Z,9.60
2019-02-07T16:10:39.035Z,9.60
2019-02-07T16:13:07.428Z,9.60
2019-02-07T16:15:36.115Z,9.70
2019-02-07T16:18:05.261Z,9.60
2019-02-07T16:20:33.679Z,9.60
2019-02-07T16:23:02.073Z,9.60
2019-02-07T16:25:30.493Z,9.60
2019-02-07T16:27:58.911Z,9.70
2019-02-07T16:30:27.306Z,9.70
2019-02-07T16:32:55.712Z,9.70
2019-02-07T16:35:24.388Z,9.70
2019-02-07T16:37:53.135Z,9.70
2019-02-07T16:40:23.132Z,9.60
2019-02-07T16:42:51.709Z,9.50
2019-02-07T16:45:27.123Z,9.50
2019-02-07T16:47:55.541Z,9.50
2019-02-07T16:50:32.177Z,9.40
2019-02-07T16:53:01.646Z,9.30
2019-02-07T16:55:30.703Z,9.30
2019-02-07T16:57:59.174Z,9.30
2019-02-07T17:00:29.514Z,9.30
2019-02-07T17:02:58.442Z,9.20
2019-02-07T17:05:27.834Z,9.20
2019-02-07T17:07:56.300Z,9.10
2019-02-07T17:10:33.937Z,9.10
2019-02-07T17:13:02.965Z,9.10
2019-02-07T17:15:31.556Z,9.10
2019-02-07T17:17:59.999Z,9.10
2019-02-07T17:20:30.356Z,9.10
2019-02-07T17:22:58.847Z,9.00
2019-02-07T17:25:29.283Z,8.90
2019-02-07T17:27:57.775Z,8.90
2019-02-07T17:30:27.161Z,8.90
2019-02-07T17:32:55.565Z,8.90
2019-02-07T17:35:24.232Z,8.80
2019-02-07T17:37:52.789Z,8.80
2019-02-07T17:40:23.288Z,8.50
2019-02-07T17:42:51.709Z,8.80
2019-02-07T17:45:23.188Z,8.70
2019-02-07T17:47:52.860Z,8.70
2019-02-07T17:50:23.688Z,8.60
2019-02-07T17:52:52.189Z,8.60
2019-02-07T17:55:22.829Z,8.60
2019-02-07T17:57:51.422Z,8.60
2019-02-07T18:00:33.029Z,8.60
2019-02-07T18:03:02.083Z,8.60
2019-02-07T18:05:30.634Z,8.70
2019-02-07T18:07:59.116Z,8.70
2019-02-07T18:10:28.709Z,8.70
2019-02-07T18:12:57.375Z,8.70
2019-02-07T18:15:26.496Z,8.70
2019-02-07T18:17:54.912Z,8.70
2019-02-07T18:20:24.241Z,8.70
2019-02-07T18:22:52.669Z,8.70
2019-02-07T18:25:21.143Z,8.80
2019-02-07T18:27:49.552Z,8.80
2019-02-07T18:30:21.048Z,8.70
2019-02-07T18:32:49.579Z,8.70
2019-02-07T18:35:19.124Z,8.70
2019-02-07T18:37:47.606Z,8.70
2019-02-07T18:40:21.871Z,8.70
2019-02-07T18:42:50.280Z,8.70
2019-02-07T18:45:21.120Z,8.70
2019-02-07T18:47:49.524Z,8.70
2019-02-07T18:50:21.059Z,8.80
2019-02-07T18:52:49.584Z,8.80
2019-02-07T18:55:18.272Z,8.80
2019-02-07T18:57:46.672Z,8.80
2019-02-07T19:00:18.165Z,8.70
2019-02-07T19:02:46.580Z,8.60
2019-02-07T19:05:17.624Z,8.50
2019-02-07T19:07:46.192Z,8.40
2019-02-07T19:10:26.270Z,8.40
2019-02-07T19:12:54.677Z,8.40
2019-02-07T19:15:32.380Z,8.40
2019-02-07T19:18:00.793Z,8.50
2019-02-07T19:20:29.196Z,8.50
2019-02-07T19:22:57.584Z,8.20
2019-02-07T19:25:26.080Z,8.50
2019-02-07T19:27:55.132Z,8.50
2019-02-07T19:30:26.350Z,8.60
2019-02-07T19:32:55.379Z,8.50
2019-02-07T19:35:23.848Z,8.50
2019-02-07T19:37:52.415Z,8.40
2019-02-07T19:40:22.176Z,8.50
2019-02-07T19:42:50.571Z,8.50
2019-02-07T19:45:26.619Z,8.50
2019-02-07T19:47:55.019Z,8.60
2019-02-07T19:50:29.770Z,8.60
2019-02-07T19:52:58.211Z,8.60
2019-02-07T19:55:29.624Z,8.60
2019-02-07T19:57:58.380Z,8.70
2019-02-07T20:00:33.988Z,8.70
2019-02-07T20:03:02.414Z,8.70
2019-02-07T20:05:31.054Z,8.70
2019-02-07T20:07:59.615Z,8.70
2019-02-07T20:10:29.731Z,8.70
2019-02-07T20:12:58.964Z,8.70
2019-02-07T20:15:29.814Z,8.70
2019-02-07T20:18:00.066Z,8.70
2019-02-07T20:20:28.565Z,8.70
2019-02-07T20:22:57.048Z,8.50
2019-02-07T20:25:25.708Z,8.40
2019-02-07T20:27:54.111Z,8.30
2019-02-07T20:30:30.627Z,8.20
2019-02-07T20:32:59.180Z,8.20
2019-02-07T20:35:27.576Z,8.10
2019-02-07T20:37:56.247Z,8.20
2019-02-07T20:40:29.133Z,8.10
2019-02-07T20:42:57.635Z,8.00
2019-02-07T20:45:26.024Z,7.90
2019-02-07T20:47:54.434Z,7.90
2019-02-07T20:50:27.668Z,7.80
2019-02-07T20:52:56.608Z,7.80
2019-02-07T20:55:26.049Z,7.80
2019-02-07T20:57:55.687Z,7.70
2019-02-07T21:00:32.787Z,7.60
2019-02-07T21:03:01.280Z,7.60
2019-02-07T21:05:31.147Z,7.50
2019-02-07T21:07:59.903Z,7.40
2019-02-07T21:10:37.174Z,7.40
2019-02-07T21:13:06.505Z,7.40
2019-02-07T21:15:35.742Z,7.40
2019-02-07T21:18:04.795Z,7.40
2019-02-07T21:20:33.339Z,7.40
2019-02-07T21:23:01.972Z,7.50
2019-02-07T21:25:42.331Z,7.40
2019-02-07T21:28:11.016Z,7.40
2019-02-07T21:30:39.415Z,7.40
2019-02-07T21:33:08.840Z,7.50
2019-02-07T21:35:37.253Z,7.40
2019-02-07T21:38:06.924Z,7.40
2019-02-07T21:40:35.886Z,7.40
2019-02-07T21:43:05.029Z,7.40
2019-02-07T21:45:33.718Z,7.40
2019-02-07T21:48:02.189Z,7.30
2019-02-07T21:50:33.538Z,7.30
2019-02-07T21:53:02.167Z,7.30
2019-02-07T21:55:32.238Z,7.30
2019-02-07T21:58:00.640Z,7.40
2019-02-07T22:00:37.759Z,7.40
2019-02-07T22:03:13.447Z,7.30
2019-02-07T22:05:42.272Z,7.30
2019-02-07T22:08:10.841Z,7.30
2019-02-07T22:10:39.426Z,7.20
2019-02-07T22:13:08.154Z,7.20
2019-02-07T22:15:36.747Z,7.20
2019-02-07T22:18:05.779Z,7.20
2019-02-07T22:20:34.203Z,7.20
2019-02-07T22:23:02.653Z,7.10
2019-02-07T22:25:31.083Z,7.10
2019-02-07T22:27:59.495Z,7.10
2019-02-07T22:30:33.333Z,7.00
2019-02-07T22:33:01.907Z,7.10
2019-02-07T22:35:30.747Z,7.10
2019-02-07T22:37:59.223Z,7.10
2019-02-07T22:40:27.628Z,7.00
2019-02-07T22:42:56.370Z,7.00
2019-02-07T22:45:26.395Z,7.00
2019-02-07T22:47:54.976Z,6.90
2019-02-07T22:50:25.557Z,6.90
2019-02-07T22:52:57.152Z,6.90
2019-02-07T22:55:24.582Z,6.90
2019-02-07T22:57:52.979Z,6.90
2019-02-07T23:00:38.034Z,6.80
2019-02-07T23:03:17.507Z,6.80
2019-02-07T23:05:45.908Z,6.80
2019-02-07T23:08:14.435Z,6.70
2019-02-07T23:10:43.295Z,6.70
2019-02-07T23:13:12.331Z,6.70
2019-02-07T23:15:40.747Z,6.60
2019-02-07T23:18:09.222Z,6.60
2019-02-07T23:20:37.693Z,6.70
2019-02-07T23:23:10.515Z,6.60
2019-02-07T23:25:39.302Z,6.60
2019-02-07T23:28:08.284Z,6.70
2019-02-07T23:30:36.958Z,6.70
2019-02-07T23:33:06.203Z,6.70
2019-02-07T23:35:34.601Z,6.70
2019-02-07T23:38:03.010Z,6.70
2019-02-07T23:40:31.416Z,6.80
2019-02-07T23:43:00.098Z,6.80
2019-02-07T23:45:28.949Z,6.90
2019-02-07T23:47:57.419Z,6.90
2019-02-07T23:50:25.983Z,6.90
2019-02-07T23:52:54.394Z,6.90
2019-02-07T23:55:23.095Z,6.90
2019-02-07T23:57:51.537Z,6.90
